< < Back
Terminal Aerodrome Forecast


Current Version              Previous Versions:   1  2  3  4  5  6  7  8  9  

Terminal Aerodrome Forecast

834
FTUS42 KFFC 160500
TAFCSG
TAF
KCSG 160528Z 1606/1706 34006KT P6SM SCT250
     FM161000 03007KT P6SM SKC
     FM161200 08009KT P6SM SKC
     FM161500 08009G16KT P6SM SCT250
     FM170000 10007KT P6SM SCT250=

Latest METAR

545
SAUS70 KWBC 161800 RRQ
MTRCSG
METAR KCSG 161851Z 10009KT 10SM CLR 16/M02 A3024 RMK AO2 SLP238
T01611022


USA.gov is the U.S. government's official web portal to all federal, state and local government web resources and services.